sensor_id;sensor_type;location;lat;lon;timestamp;temperature;humidity
64599;SHT31;51008;51.504;11.548;2023-12-22T00:01:21;3.14;94.47
64599;SHT31;51008;51.504;11.548;2023-12-22T00:06:22;3.08;94.29
64599;SHT31;51008;51.504;11.548;2023-12-22T00:11:23;3.05;94.18
64599;SHT31;51008;51.504;11.548;2023-12-22T00:16:24;3.09;93.81
64599;SHT31;51008;51.504;11.548;2023-12-22T00:21:26;3.14;93.29
64599;SHT31;51008;51.504;11.548;2023-12-22T00:26:27;3.19;93.31
64599;SHT31;51008;51.504;11.548;2023-12-22T00:31:28;3.31;92.81
64599;SHT31;51008;51.504;11.548;2023-12-22T00:36:29;3.40;92.56
64599;SHT31;51008;51.504;11.548;2023-12-22T00:41:30;3.42;92.72
64599;SHT31;51008;51.504;11.548;2023-12-22T00:46:32;3.48;93.05
64599;SHT31;51008;51.504;11.548;2023-12-22T00:51:33;3.48;93.28
64599;SHT31;51008;51.504;11.548;2023-12-22T00:56:34;3.50;92.77
64599;SHT31;51008;51.504;11.548;2023-12-22T01:01:35;3.44;92.61
64599;SHT31;51008;51.504;11.548;2023-12-22T01:06:37;3.39;91.87
64599;SHT31;51008;51.504;11.548;2023-12-22T01:11:39;3.33;91.35
64599;SHT31;51008;51.504;11.548;2023-12-22T01:16:40;3.33;91.53
64599;SHT31;51008;51.504;11.548;2023-12-22T01:21:41;3.26;91.73
64599;SHT31;51008;51.504;11.548;2023-12-22T01:26:42;3.18;92.58
64599;SHT31;51008;51.504;11.548;2023-12-22T01:31:44;3.15;93.34
64599;SHT31;51008;51.504;11.548;2023-12-22T01:36:45;3.32;93.00
64599;SHT31;51008;51.504;11.548;2023-12-22T01:42:05;3.35;92.76
64599;SHT31;51008;51.504;11.548;2023-12-22T01:47:13;3.19;92.66
64599;SHT31;51008;51.504;11.548;2023-12-22T01:52:16;3.11;93.16
64599;SHT31;51008;51.504;11.548;2023-12-22T01:57:18;3.07;94.14
64599;SHT31;51008;51.504;11.548;2023-12-22T02:02:20;3.01;94.07
64599;SHT31;51008;51.504;11.548;2023-12-22T02:07:21;2.87;94.28
64599;SHT31;51008;51.504;11.548;2023-12-22T02:12:22;2.83;94.51
64599;SHT31;51008;51.504;11.548;2023-12-22T02:17:32;2.75;94.27
64599;SHT31;51008;51.504;11.548;2023-12-22T02:22:34;2.66;93.88
64599;SHT31;51008;51.504;11.548;2023-12-22T02:27:42;2.64;93.55
64599;SHT31;51008;51.504;11.548;2023-12-22T02:32:49;2.66;93.71
64599;SHT31;51008;51.504;11.548;2023-12-22T02:37:56;2.64;94.41
64599;SHT31;51008;51.504;11.548;2023-12-22T02:42:59;2.64;94.22
64599;SHT31;51008;51.504;11.548;2023-12-22T02:48:01;2.72;93.94
64599;SHT31;51008;51.504;11.548;2023-12-22T02:53:02;2.72;93.65
64599;SHT31;51008;51.504;11.548;2023-12-22T02:58:03;2.77;93.03
64599;SHT31;51008;51.504;11.548;2023-12-22T03:03:04;2.70;93.36
64599;SHT31;51008;51.504;11.548;2023-12-22T03:08:06;2.66;93.47
64599;SHT31;51008;51.504;11.548;2023-12-22T03:13:07;2.69;93.28
64599;SHT31;51008;51.504;11.548;2023-12-22T03:18:08;2.63;93.26
64599;SHT31;51008;51.504;11.548;2023-12-22T03:23:09;2.59;93.62
64599;SHT31;51008;51.504;11.548;2023-12-22T03:28:10;2.62;94.05
64599;SHT31;51008;51.504;11.548;2023-12-22T03:33:11;2.66;93.86
64599;SHT31;51008;51.504;11.548;2023-12-22T03:38:12;2.70;93.17
64599;SHT31;51008;51.504;11.548;2023-12-22T03:43:14;2.87;91.78
64599;SHT31;51008;51.504;11.548;2023-12-22T03:48:15;2.93;91.87
64599;SHT31;51008;51.504;11.548;2023-12-22T03:53:16;2.91;92.86
64599;SHT31;51008;51.504;11.548;2023-12-22T03:58:17;2.93;92.40
64599;SHT31;51008;51.504;11.548;2023-12-22T04:03:18;3.07;90.22
64599;SHT31;51008;51.504;11.548;2023-12-22T04:08:19;3.25;88.87
64599;SHT31;51008;51.504;11.548;2023-12-22T04:13:20;3.38;87.51
64599;SHT31;51008;51.504;11.548;2023-12-22T04:18:22;3.25;89.30
64599;SHT31;51008;51.504;11.548;2023-12-22T04:23:23;3.16;90.62
64599;SHT31;51008;51.504;11.548;2023-12-22T04:28:24;3.11;91.80
64599;SHT31;51008;51.504;11.548;2023-12-22T04:33:25;3.03;92.77
64599;SHT31;51008;51.504;11.548;2023-12-22T04:38:26;2.87;93.02
64599;SHT31;51008;51.504;11.548;2023-12-22T04:43:27;2.88;92.68
64599;SHT31;51008;51.504;11.548;2023-12-22T04:48:28;2.88;92.13
64599;SHT31;51008;51.504;11.548;2023-12-22T04:53:29;3.07;90.65
64599;SHT31;51008;51.504;11.548;2023-12-22T04:58:30;3.05;89.02
64599;SHT31;51008;51.504;11.548;2023-12-22T05:03:31;3.18;87.17
64599;SHT31;51008;51.504;11.548;2023-12-22T05:08:32;3.07;88.56
64599;SHT31;51008;51.504;11.548;2023-12-22T05:13:33;3.12;87.74
64599;SHT31;51008;51.504;11.548;2023-12-22T05:18:34;3.03;89.14
64599;SHT31;51008;51.504;11.548;2023-12-22T05:23:35;3.07;89.74
64599;SHT31;51008;51.504;11.548;2023-12-22T05:28:36;3.11;90.38
64599;SHT31;51008;51.504;11.548;2023-12-22T05:33:38;3.15;90.10
64599;SHT31;51008;51.504;11.548;2023-12-22T05:38:39;3.16;90.02
64599;SHT31;51008;51.504;11.548;2023-12-22T05:43:40;3.24;90.05
64599;SHT31;51008;51.504;11.548;2023-12-22T05:48:41;3.26;90.01
64599;SHT31;51008;51.504;11.548;2023-12-22T05:53:43;3.22;90.92
64599;SHT31;51008;51.504;11.548;2023-12-22T05:58:44;3.19;90.33
64599;SHT31;51008;51.504;11.548;2023-12-22T06:03:46;3.16;90.74
64599;SHT31;51008;51.504;11.548;2023-12-22T06:08:47;3.18;90.60
64599;SHT31;51008;51.504;11.548;2023-12-22T06:13:48;3.18;89.83
64599;SHT31;51008;51.504;11.548;2023-12-22T06:18:49;3.32;87.65
64599;SHT31;51008;51.504;11.548;2023-12-22T06:23:50;3.43;85.95
64599;SHT31;51008;51.504;11.548;2023-12-22T06:28:51;3.58;83.86
64599;SHT31;51008;51.504;11.548;2023-12-22T06:33:52;3.58;84.57
64599;SHT31;51008;51.504;11.548;2023-12-22T06:38:57;3.38;86.79
64599;SHT31;51008;51.504;11.548;2023-12-22T06:43:59;3.29;89.27
64599;SHT31;51008;51.504;11.548;2023-12-22T06:49:00;3.05;93.63
64599;SHT31;51008;51.504;11.548;2023-12-22T06:54:02;2.72;95.36
64599;SHT31;51008;51.504;11.548;2023-12-22T06:59:03;2.66;95.41
64599;SHT31;51008;51.504;11.548;2023-12-22T07:04:04;2.67;94.68
64599;SHT31;51008;51.504;11.548;2023-12-22T07:14:12;2.69;93.64
64599;SHT31;51008;51.504;11.548;2023-12-22T07:19:13;2.77;93.24
64599;SHT31;51008;51.504;11.548;2023-12-22T07:24:14;2.84;91.28
64599;SHT31;51008;51.504;11.548;2023-12-22T07:29:15;3.09;89.61
64599;SHT31;51008;51.504;11.548;2023-12-22T07:34:16;3.11;89.69
64599;SHT31;51008;51.504;11.548;2023-12-22T07:39:17;3.52;84.85
64599;SHT31;51008;51.504;11.548;2023-12-22T07:44:18;4.05;82.18
64599;SHT31;51008;51.504;11.548;2023-12-22T07:49:19;4.06;82.91
64599;SHT31;51008;51.504;11.548;2023-12-22T07:54:20;3.80;83.59
64599;SHT31;51008;51.504;11.548;2023-12-22T07:59:21;3.64;83.89
64599;SHT31;51008;51.504;11.548;2023-12-22T08:04:22;3.60;84.30
64599;SHT31;51008;51.504;11.548;2023-12-22T08:09:24;3.43;85.85
64599;SHT31;51008;51.504;11.548;2023-12-22T08:14:25;3.12;90.20
64599;SHT31;51008;51.504;11.548;2023-12-22T08:19:26;2.84;91.68
64599;SHT31;51008;51.504;11.548;2023-12-22T08:24:27;2.86;92.60
64599;SHT31;51008;51.504;11.548;2023-12-22T08:29:28;3.12;91.51
64599;SHT31;51008;51.504;11.548;2023-12-22T08:34:29;3.09;92.63
64599;SHT31;51008;51.504;11.548;2023-12-22T08:39:30;2.97;94.31
64599;SHT31;51008;51.504;11.548;2023-12-22T08:44:31;2.90;95.27
64599;SHT31;51008;51.504;11.548;2023-12-22T08:49:32;2.81;95.94
64599;SHT31;51008;51.504;11.548;2023-12-22T08:54:33;2.66;96.78
64599;SHT31;51008;51.504;11.548;2023-12-22T08:59:34;2.63;96.72
64599;SHT31;51008;51.504;11.548;2023-12-22T09:04:35;2.60;96.94
64599;SHT31;51008;51.504;11.548;2023-12-22T09:09:37;2.60;96.97
64599;SHT31;51008;51.504;11.548;2023-12-22T09:14:41;2.21;96.24
64599;SHT31;51008;51.504;11.548;2023-12-22T09:19:42;1.91;96.69
64599;SHT31;51008;51.504;11.548;2023-12-22T09:24:43;1.83;97.39
64599;SHT31;51008;51.504;11.548;2023-12-22T09:29:44;2.04;99.18
64599;SHT31;51008;51.504;11.548;2023-12-22T09:34:45;2.84;99.24
64599;SHT31;51008;51.504;11.548;2023-12-22T09:39:46;3.03;97.46
64599;SHT31;51008;51.504;11.548;2023-12-22T09:44:49;3.26;96.72
64599;SHT31;51008;51.504;11.548;2023-12-22T09:49:53;3.93;92.77
64599;SHT31;51008;51.504;11.548;2023-12-22T09:54:55;4.38;90.72
64599;SHT31;51008;51.504;11.548;2023-12-22T09:59:58;4.56;88.71
64599;SHT31;51008;51.504;11.548;2023-12-22T10:05:00;5.13;87.15
64599;SHT31;51008;51.504;11.548;2023-12-22T10:10:02;5.46;85.43
64599;SHT31;51008;51.504;11.548;2023-12-22T10:15:05;5.47;84.05
64599;SHT31;51008;51.504;11.548;2023-12-22T10:20:07;5.71;82.50
64599;SHT31;51008;51.504;11.548;2023-12-22T10:25:08;6.13;82.42
64599;SHT31;51008;51.504;11.548;2023-12-22T10:30:10;6.12;81.38
64599;SHT31;51008;51.504;11.548;2023-12-22T10:35:12;6.38;81.25
64599;SHT31;51008;51.504;11.548;2023-12-22T10:40:20;6.30;79.19
64599;SHT31;51008;51.504;11.548;2023-12-22T10:45:21;6.22;78.63
64599;SHT31;51008;51.504;11.548;2023-12-22T10:50:22;5.87;79.17
64599;SHT31;51008;51.504;11.548;2023-12-22T10:55:23;5.57;79.16
64599;SHT31;51008;51.504;11.548;2023-12-22T11:00:25;5.35;80.56
64599;SHT31;51008;51.504;11.548;2023-12-22T11:05:27;5.20;82.90
64599;SHT31;51008;51.504;11.548;2023-12-22T11:10:30;5.11;83.26
64599;SHT31;51008;51.504;11.548;2023-12-22T11:15:32;5.02;85.08
64599;SHT31;51008;51.504;11.548;2023-12-22T11:20:34;4.92;85.55
64599;SHT31;51008;51.504;11.548;2023-12-22T11:25:36;4.85;87.58
64599;SHT31;51008;51.504;11.548;2023-12-22T11:30:38;4.81;87.82
64599;SHT31;51008;51.504;11.548;2023-12-22T11:35:40;4.70;88.76
64599;SHT31;51008;51.504;11.548;2023-12-22T11:40:42;4.53;89.25
64599;SHT31;51008;51.504;11.548;2023-12-22T11:45:43;4.39;90.06
64599;SHT31;51008;51.504;11.548;2023-12-22T11:50:44;4.39;91.36
64599;SHT31;51008;51.504;11.548;2023-12-22T11:56:05;4.45;91.30
64599;SHT31;51008;51.504;11.548;2023-12-22T12:01:13;4.42;91.46
64599;SHT31;51008;51.504;11.548;2023-12-22T12:11:23;4.68;91.59
64599;SHT31;51008;51.504;11.548;2023-12-22T12:16:24;4.89;90.82
64599;SHT31;51008;51.504;11.548;2023-12-22T12:21:26;5.16;89.35
64599;SHT31;51008;51.504;11.548;2023-12-22T12:26:27;5.29;87.71
64599;SHT31;51008;51.504;11.548;2023-12-22T12:31:37;5.27;87.77
64599;SHT31;51008;51.504;11.548;2023-12-22T12:36:39;5.25;87.52
64599;SHT31;51008;51.504;11.548;2023-12-22T12:41:41;5.30;86.75
64599;SHT31;51008;51.504;11.548;2023-12-22T12:46:42;5.39;85.52
64599;SHT31;51008;51.504;11.548;2023-12-22T12:51:46;5.54;85.02
64599;SHT31;51008;51.504;11.548;2023-12-22T12:56:47;5.75;83.56
64599;SHT31;51008;51.504;11.548;2023-12-22T13:01:48;5.92;82.25
64599;SHT31;51008;51.504;11.548;2023-12-22T13:06:50;6.02;81.93
64599;SHT31;51008;51.504;11.548;2023-12-22T13:11:51;6.05;82.15
64599;SHT31;51008;51.504;11.548;2023-12-22T13:16:54;6.03;81.18
64599;SHT31;51008;51.504;11.548;2023-12-22T13:21:56;6.09;80.96
64599;SHT31;51008;51.504;11.548;2023-12-22T13:27:03;6.12;80.34
64599;SHT31;51008;51.504;11.548;2023-12-22T13:32:05;6.05;80.89
64599;SHT31;51008;51.504;11.548;2023-12-22T13:37:06;6.01;80.88
64599;SHT31;51008;51.504;11.548;2023-12-22T13:42:17;6.01;80.34
64599;SHT31;51008;51.504;11.548;2023-12-22T13:47:19;5.94;80.85
64599;SHT31;51008;51.504;11.548;2023-12-22T13:52:29;5.94;81.02
64599;SHT31;51008;51.504;11.548;2023-12-22T13:57:30;5.91;81.33
64599;SHT31;51008;51.504;11.548;2023-12-22T14:02:31;5.98;80.61
64599;SHT31;51008;51.504;11.548;2023-12-22T14:07:32;6.01;80.54
64599;SHT31;51008;51.504;11.548;2023-12-22T14:12:34;6.01;80.13
64599;SHT31;51008;51.504;11.548;2023-12-22T14:17:35;5.98;80.55
64599;SHT31;51008;51.504;11.548;2023-12-22T14:22:36;5.94;81.16
64599;SHT31;51008;51.504;11.548;2023-12-22T14:27:37;5.92;81.42
64599;SHT31;51008;51.504;11.548;2023-12-22T14:32:38;5.92;81.49
64599;SHT31;51008;51.504;11.548;2023-12-22T14:37:39;5.91;81.68
64599;SHT31;51008;51.504;11.548;2023-12-22T14:42:40;5.87;81.82
64599;SHT31;51008;51.504;11.548;2023-12-22T14:47:41;5.85;82.18
64599;SHT31;51008;51.504;11.548;2023-12-22T14:52:42;5.84;82.16
64599;SHT31;51008;51.504;11.548;2023-12-22T14:57:43;5.74;81.78
64599;SHT31;51008;51.504;11.548;2023-12-22T15:02:44;5.77;81.24
64599;SHT31;51008;51.504;11.548;2023-12-22T15:07:45;5.68;82.32
64599;SHT31;51008;51.504;11.548;2023-12-22T15:12:46;5.61;82.39
64599;SHT31;51008;51.504;11.548;2023-12-22T15:17:47;5.55;82.84
64599;SHT31;51008;51.504;11.548;2023-12-22T15:22:48;5.47;83.56
64599;SHT31;51008;51.504;11.548;2023-12-22T15:27:49;5.51;83.09
64599;SHT31;51008;51.504;11.548;2023-12-22T15:32:50;5.42;83.68
64599;SHT31;51008;51.504;11.548;2023-12-22T15:37:51;5.30;86.32
64599;SHT31;51008;51.504;11.548;2023-12-22T15:42:52;5.20;87.06
64599;SHT31;51008;51.504;11.548;2023-12-22T15:47:53;5.22;85.59
64599;SHT31;51008;51.504;11.548;2023-12-22T15:52:54;5.32;83.71
64599;SHT31;51008;51.504;11.548;2023-12-22T15:57:55;5.30;84.20
64599;SHT31;51008;51.504;11.548;2023-12-22T16:02:56;5.20;85.17
64599;SHT31;51008;51.504;11.548;2023-12-22T16:07:57;5.19;86.55
64599;SHT31;51008;51.504;11.548;2023-12-22T16:12:58;5.12;87.74
64599;SHT31;51008;51.504;11.548;2023-12-22T16:17:59;5.01;89.54
64599;SHT31;51008;51.504;11.548;2023-12-22T16:23:03;4.94;89.98
64599;SHT31;51008;51.504;11.548;2023-12-22T16:28:05;4.99;88.96
64599;SHT31;51008;51.504;11.548;2023-12-22T16:33:06;4.83;89.65
64599;SHT31;51008;51.504;11.548;2023-12-22T16:38:07;4.77;89.92
64599;SHT31;51008;51.504;11.548;2023-12-22T16:43:08;4.67;90.99
64599;SHT31;51008;51.504;11.548;2023-12-22T16:48:09;4.53;91.99
64599;SHT31;51008;51.504;11.548;2023-12-22T16:53:10;4.50;93.17
64599;SHT31;51008;51.504;11.548;2023-12-22T16:58:11;4.47;94.62
64599;SHT31;51008;51.504;11.548;2023-12-22T17:03:12;4.46;96.11
64599;SHT31;51008;51.504;11.548;2023-12-22T17:08:13;4.50;96.64
64599;SHT31;51008;51.504;11.548;2023-12-22T17:13:14;4.49;97.14
64599;SHT31;51008;51.504;11.548;2023-12-22T17:18:15;4.47;97.64
64599;SHT31;51008;51.504;11.548;2023-12-22T17:23:16;4.50;97.67
64599;SHT31;51008;51.504;11.548;2023-12-22T17:28:17;4.54;97.77
64599;SHT31;51008;51.504;11.548;2023-12-22T17:33:18;4.36;96.34
64599;SHT31;51008;51.504;11.548;2023-12-22T17:38:19;3.64;95.48
64599;SHT31;51008;51.504;11.548;2023-12-22T17:43:20;3.19;96.78
64599;SHT31;51008;51.504;11.548;2023-12-22T17:48:21;2.94;97.32
64599;SHT31;51008;51.504;11.548;2023-12-22T17:53:22;2.87;97.67
64599;SHT31;51008;51.504;11.548;2023-12-22T17:58:23;2.81;98.15
64599;SHT31;51008;51.504;11.548;2023-12-22T18:03:24;2.77;98.38
64599;SHT31;51008;51.504;11.548;2023-12-22T18:08:25;2.80;98.63
64599;SHT31;51008;51.504;11.548;2023-12-22T18:13:26;2.79;98.77
64599;SHT31;51008;51.504;11.548;2023-12-22T18:18:27;2.76;98.95
64599;SHT31;51008;51.504;11.548;2023-12-22T18:23:28;2.79;99.15
64599;SHT31;51008;51.504;11.548;2023-12-22T18:28:29;2.86;99.08
64599;SHT31;51008;51.504;11.548;2023-12-22T18:33:30;2.81;99.04
64599;SHT31;51008;51.504;11.548;2023-12-22T18:38:32;2.84;98.99
64599;SHT31;51008;51.504;11.548;2023-12-22T18:43:33;2.80;99.17
64599;SHT31;51008;51.504;11.548;2023-12-22T18:48:34;2.72;99.19
64599;SHT31;51008;51.504;11.548;2023-12-22T18:53:35;2.66;99.34
64599;SHT31;51008;51.504;11.548;2023-12-22T18:58:36;2.62;99.34
64599;SHT31;51008;51.504;11.548;2023-12-22T19:03:37;2.60;99.42
64599;SHT31;51008;51.504;11.548;2023-12-22T19:08:38;2.52;99.60
64599;SHT31;51008;51.504;11.548;2023-12-22T19:13:39;2.39;99.22
64599;SHT31;51008;51.504;11.548;2023-12-22T19:18:40;2.27;99.41
64599;SHT31;51008;51.504;11.548;2023-12-22T19:23:41;2.14;99.46
64599;SHT31;51008;51.504;11.548;2023-12-22T19:28:42;2.04;99.46
64599;SHT31;51008;51.504;11.548;2023-12-22T19:33:43;1.94;99.86
64599;SHT31;51008;51.504;11.548;2023-12-22T19:38:44;1.97;99.99
64599;SHT31;51008;51.504;11.548;2023-12-22T19:43:45;2.04;99.99
64599;SHT31;51008;51.504;11.548;2023-12-22T19:48:46;2.15;99.99
64599;SHT31;51008;51.504;11.548;2023-12-22T19:53:47;2.34;99.99
64599;SHT31;51008;51.504;11.548;2023-12-22T19:58:48;2.50;99.99
64599;SHT31;51008;51.504;11.548;2023-12-22T20:03:49;2.72;99.99
64599;SHT31;51008;51.504;11.548;2023-12-22T20:08:50;2.79;99.99
64599;SHT31;51008;51.504;11.548;2023-12-22T20:13:52;2.90;99.99
64599;SHT31;51008;51.504;11.548;2023-12-22T20:18:53;3.04;99.99
64599;SHT31;51008;51.504;11.548;2023-12-22T20:23:54;3.09;99.99
64599;SHT31;51008;51.504;11.548;2023-12-22T20:28:55;3.00;99.73
64599;SHT31;51008;51.504;11.548;2023-12-22T20:33:56;2.93;99.92
64599;SHT31;51008;51.504;11.548;2023-12-22T20:38:57;2.93;99.99
64599;SHT31;51008;51.504;11.548;2023-12-22T20:43:58;2.93;99.99
64599;SHT31;51008;51.504;11.548;2023-12-22T20:48:59;2.93;99.99
64599;SHT31;51008;51.504;11.548;2023-12-22T20:54:00;2.96;99.99
64599;SHT31;51008;51.504;11.548;2023-12-22T20:59:01;3.07;99.99
64599;SHT31;51008;51.504;11.548;2023-12-22T21:04:02;3.11;99.94
64599;SHT31;51008;51.504;11.548;2023-12-22T21:09:03;3.11;99.69
64599;SHT31;51008;51.504;11.548;2023-12-22T21:14:04;3.04;99.82
64599;SHT31;51008;51.504;11.548;2023-12-22T21:19:05;3.04;99.86
64599;SHT31;51008;51.504;11.548;2023-12-22T21:24:06;3.09;99.99
64599;SHT31;51008;51.504;11.548;2023-12-22T21:29:07;3.14;99.81
64599;SHT31;51008;51.504;11.548;2023-12-22T21:34:08;3.15;99.89
64599;SHT31;51008;51.504;11.548;2023-12-22T21:39:09;3.21;99.76
64599;SHT31;51008;51.504;11.548;2023-12-22T21:44:30;3.33;99.69
64599;SHT31;51008;51.504;11.548;2023-12-22T21:49:35;3.52;98.83
64599;SHT31;51008;51.504;11.548;2023-12-22T21:54:36;3.66;97.98
64599;SHT31;51008;51.504;11.548;2023-12-22T21:59:56;3.70;97.19
64599;SHT31;51008;51.504;11.548;2023-12-22T22:05:00;3.64;96.99
64599;SHT31;51008;51.504;11.548;2023-12-22T22:10:01;3.64;96.53
64599;SHT31;51008;51.504;11.548;2023-12-22T22:15:03;3.63;96.44
64599;SHT31;51008;51.504;11.548;2023-12-22T22:20:05;3.55;96.03
64599;SHT31;51008;51.504;11.548;2023-12-22T22:25:24;3.53;95.05
64599;SHT31;51008;51.504;11.548;2023-12-22T22:30:44;3.55;94.87
64599;SHT31;51008;51.504;11.548;2023-12-22T22:35:51;3.64;94.41
64599;SHT31;51008;51.504;11.548;2023-12-22T22:40:53;3.80;93.19
64599;SHT31;51008;51.504;11.548;2023-12-22T22:45:54;3.98;91.89
64599;SHT31;51008;51.504;11.548;2023-12-22T22:50:59;4.02;92.37
64599;SHT31;51008;51.504;11.548;2023-12-22T22:56:00;4.01;94.04
64599;SHT31;51008;51.504;11.548;2023-12-22T23:01:01;3.83;95.58
64599;SHT31;51008;51.504;11.548;2023-12-22T23:06:04;3.73;95.61
64599;SHT31;51008;51.504;11.548;2023-12-22T23:11:07;3.59;96.05
64599;SHT31;51008;51.504;11.548;2023-12-22T23:16:08;3.46;95.33
64599;SHT31;51008;51.504;11.548;2023-12-22T23:21:10;3.32;96.55
64599;SHT31;51008;51.504;11.548;2023-12-22T23:26:11;3.21;97.05
64599;SHT31;51008;51.504;11.548;2023-12-22T23:31:30;3.21;97.18
64599;SHT31;51008;51.504;11.548;2023-12-22T23:36:37;3.18;97.67
64599;SHT31;51008;51.504;11.548;2023-12-22T23:41:38;3.04;97.44
64599;SHT31;51008;51.504;11.548;2023-12-22T23:46:39;2.97;97.26
64599;SHT31;51008;51.504;11.548;2023-12-22T23:51:40;2.91;95.25
64599;SHT31;51008;51.504;11.548;2023-12-22T23:56:41;3.04;93.04
